CheckWX is a tool to help pilots better visualize weather data.  It is not intended as a substitute for an official pre-flight weather briefing.

07:45:27 UTC

CYXT METAR
Terrace Airport
Terrace, Canada
Current

45 mins ago

CYXT 220700Z 18007KT 160V240 4SM -SN BR FEW003 BKN020 00/M01 A2992 RMK SF1SC5 SLP144
Observed
Feb-22 @ 07:00 UTC
Wind
  • 180° at 7 KTS
Visibility
4 SM
Flight Rules
MVFR
Conditions
Light Snow, Mist
Cloud Levels
  • Few at 300' AGL
  • Broken at 2,000' AGL
Temperature
C / 32°F
Dewpoint
-1°C / 30°F
Humidity
93%
Altimeter
29.92" Hg
Pressure
1013.22 hPa
Previous

2 hours ago

CYXT 220615Z 23006KT 4SM -SN BR FEW005 SCT013 01/M01 A2992 RMK SF1SC7 SLP144
Observed
Feb-22 @ 06:15 UTC
Wind
  • 230° at 6 KTS
Visibility
4 SM
Flight Rules
MVFR
Conditions
Light Snow, Mist
Cloud Levels
  • Few at 500' AGL
  • Scattered at 1,300' AGL
Temperature
C / 34°F
Dewpoint
-1°C / 30°F
Humidity
87%
Altimeter
29.92" Hg
Pressure
1013.22 hPa
Previous

2 hours ago

CYXT 220600Z 24007G15KT 4SM BR FEW003 OVC018 01/M01 A2991 RMK SF1SC7 SLP140
Observed
Feb-22 @ 06:00 UTC
Wind
  • 240° at 7 KTS
  • Gusting to 15 KTS
Visibility
4 SM
Flight Rules
MVFR
Conditions
Mist
Cloud Levels
  • Few at 300' AGL
  • Overcast at 1,800' AGL
Temperature
C / 34°F
Dewpoint
-1°C / 30°F
Humidity
87%
Altimeter
29.91" Hg
Pressure
1012.92 hPa